sensor_id;sensor_type;location;lat;lon;timestamp;P1;durP1;ratioP1;P2;durP2;ratioP2
62092;SDS011;59819;52.976;6.846;2022-09-30T00:00:51;145.07;;;11.45;;
62092;SDS011;59819;52.976;6.846;2022-09-30T00:03:18;42.85;;;8.27;;
62092;SDS011;59819;52.976;6.846;2022-09-30T00:05:44;7.68;;;6.20;;
62092;SDS011;59819;52.976;6.846;2022-09-30T00:08:10;8.27;;;6.50;;
62092;SDS011;59819;52.976;6.846;2022-09-30T00:10:36;4.82;;;4.30;;
62092;SDS011;59819;52.976;6.846;2022-09-30T00:13:02;11.85;;;8.13;;
62092;SDS011;59819;52.976;6.846;2022-09-30T00:15:28;5.40;;;4.75;;
62092;SDS011;59819;52.976;6.846;2022-09-30T00:17:54;4.13;;;3.83;;
62092;SDS011;59819;52.976;6.846;2022-09-30T00:20:20;8.60;;;5.50;;
62092;SDS011;59819;52.976;6.846;2022-09-30T00:22:46;69.97;;;10.63;;
62092;SDS011;59819;52.976;6.846;2022-09-30T00:25:12;6.60;;;6.00;;
62092;SDS011;59819;52.976;6.846;2022-09-30T00:27:40;7.30;;;6.53;;
62092;SDS011;59819;52.976;6.846;2022-09-30T00:30:06;164.27;;;13.82;;
62092;SDS011;59819;52.976;6.846;2022-09-30T00:32:32;22.10;;;6.85;;
62092;SDS011;59819;52.976;6.846;2022-09-30T00:34:58;47.42;;;7.13;;
62092;SDS011;59819;52.976;6.846;2022-09-30T00:37:24;70.53;;;8.88;;
62092;SDS011;59819;52.976;6.846;2022-09-30T00:39:50;10.75;;;7.72;;
62092;SDS011;59819;52.976;6.846;2022-09-30T00:42:16;8.65;;;6.97;;
62092;SDS011;59819;52.976;6.846;2022-09-30T00:49:52;7.53;;;6.85;;
62092;SDS011;59819;52.976;6.846;2022-09-30T00:52:19;45.67;;;9.55;;
62092;SDS011;59819;52.976;6.846;2022-09-30T00:54:46;75.68;;;11.15;;
62092;SDS011;59819;52.976;6.846;2022-09-30T00:57:12;130.65;;;12.57;;
62092;SDS011;59819;52.976;6.846;2022-09-30T00:59:40;12.57;;;6.20;;
62092;SDS011;59819;52.976;6.846;2022-09-30T01:02:06;7.28;;;6.53;;
62092;SDS011;59819;52.976;6.846;2022-09-30T01:04:34;7.45;;;6.70;;
62092;SDS011;59819;52.976;6.846;2022-09-30T01:07:02;8.13;;;7.32;;
62092;SDS011;59819;52.976;6.846;2022-09-30T01:09:30;8.27;;;6.70;;
62092;SDS011;59819;52.976;6.846;2022-09-30T01:11:56;8.30;;;7.50;;
62092;SDS011;59819;52.976;6.846;2022-09-30T01:14:23;7.30;;;6.63;;
62092;SDS011;59819;52.976;6.846;2022-09-30T01:17:03;7.53;;;6.80;;
62092;SDS011;59819;52.976;6.846;2022-09-30T01:22:17;9.07;;;8.00;;
62092;SDS011;59819;52.976;6.846;2022-09-30T01:32:33;9.50;;;8.45;;
62092;SDS011;59819;52.976;6.846;2022-09-30T01:47:44;35.15;;;9.35;;
62092;SDS011;59819;52.976;6.846;2022-09-30T01:57:53;26.63;;;9.98;;
62092;SDS011;59819;52.976;6.846;2022-09-30T02:00:20;30.58;;;11.32;;
62092;SDS011;59819;52.976;6.846;2022-09-30T02:03:00;24.05;;;10.95;;
62092;SDS011;59819;52.976;6.846;2022-09-30T02:05:35;13.15;;;10.15;;
62092;SDS011;59819;52.976;6.846;2022-09-30T02:08:11;13.82;;;10.23;;
62092;SDS011;59819;52.976;6.846;2022-09-30T02:10:43;11.57;;;10.48;;
62092;SDS011;59819;52.976;6.846;2022-09-30T02:13:13;8.00;;;7.32;;
62092;SDS011;59819;52.976;6.846;2022-09-30T02:15:41;9.43;;;8.63;;
62092;SDS011;59819;52.976;6.846;2022-09-30T02:18:43;9.98;;;9.07;;
62092;SDS011;59819;52.976;6.846;2022-09-30T02:21:01;11.90;;;10.70;;
62092;SDS011;59819;52.976;6.846;2022-09-30T02:23:30;10.43;;;9.43;;
62092;SDS011;59819;52.976;6.846;2022-09-30T02:28:30;17.15;;;13.27;;
62092;SDS011;59819;52.976;6.846;2022-09-30T02:30:57;12.30;;;11.10;;
62092;SDS011;59819;52.976;6.846;2022-09-30T02:33:46;10.40;;;9.40;;
62092;SDS011;59819;52.976;6.846;2022-09-30T02:39:42;12.23;;;11.00;;
62092;SDS011;59819;52.976;6.846;2022-09-30T02:41:43;13.60;;;11.38;;
62092;SDS011;59819;52.976;6.846;2022-09-30T02:44:10;9.15;;;8.35;;
62092;SDS011;59819;52.976;6.846;2022-09-30T02:46:48;9.43;;;8.52;;
62092;SDS011;59819;52.976;6.846;2022-09-30T02:56:42;7.53;;;6.82;;
62092;SDS011;59819;52.976;6.846;2022-09-30T02:59:10;9.23;;;6.97;;
62092;SDS011;59819;52.976;6.846;2022-09-30T03:01:37;9.63;;;8.73;;
62092;SDS011;59819;52.976;6.846;2022-09-30T03:04:07;10.50;;;9.45;;
62092;SDS011;59819;52.976;6.846;2022-09-30T03:06:34;11.45;;;10.35;;
62092;SDS011;59819;52.976;6.846;2022-09-30T03:09:00;13.43;;;9.30;;
62092;SDS011;59819;52.976;6.846;2022-09-30T03:11:27;50.55;;;8.98;;
62092;SDS011;59819;52.976;6.846;2022-09-30T03:30:28;147.45;;;11.90;;
62092;SDS011;59819;52.976;6.846;2022-09-30T03:42:56;12.40;;;6.95;;
62092;SDS011;59819;52.976;6.846;2022-09-30T03:45:36;28.67;;;6.78;;
62092;SDS011;59819;52.976;6.846;2022-09-30T03:48:04;217.93;;;23.77;;
62092;SDS011;59819;52.976;6.846;2022-09-30T03:50:32;120.10;;;16.90;;
62092;SDS011;59819;52.976;6.846;2022-09-30T03:53:00;70.07;;;11.20;;
62092;SDS011;59819;52.976;6.846;2022-09-30T03:55:27;124.68;;;15.43;;
62092;SDS011;59819;52.976;6.846;2022-09-30T03:57:53;346.67;;;27.70;;
62092;SDS011;59819;52.976;6.846;2022-09-30T04:00:19;211.10;;;22.30;;
62092;SDS011;59819;52.976;6.846;2022-09-30T04:02:45;192.98;;;22.90;;
62092;SDS011;59819;52.976;6.846;2022-09-30T04:05:12;80.43;;;16.67;;
62092;SDS011;59819;52.976;6.846;2022-09-30T04:07:38;17.38;;;11.95;;
62092;SDS011;59819;52.976;6.846;2022-09-30T04:10:04;9.98;;;8.35;;
62092;SDS011;59819;52.976;6.846;2022-09-30T04:12:31;7.85;;;6.90;;
62092;SDS011;59819;52.976;6.846;2022-09-30T04:14:57;20.80;;;9.88;;
62092;SDS011;59819;52.976;6.846;2022-09-30T04:17:23;22.95;;;14.10;;
62092;SDS011;59819;52.976;6.846;2022-09-30T04:19:49;62.58;;;17.10;;
62092;SDS011;59819;52.976;6.846;2022-09-30T04:22:15;21.83;;;13.50;;
62092;SDS011;59819;52.976;6.846;2022-09-30T04:24:41;19.00;;;14.32;;
62092;SDS011;59819;52.976;6.846;2022-09-30T04:27:07;16.70;;;14.50;;
62092;SDS011;59819;52.976;6.846;2022-09-30T04:29:33;10.88;;;9.88;;
62092;SDS011;59819;52.976;6.846;2022-09-30T04:32:00;26.10;;;10.68;;
62092;SDS011;59819;52.976;6.846;2022-09-30T04:34:26;23.63;;;10.75;;
62092;SDS011;59819;52.976;6.846;2022-09-30T04:36:52;137.68;;;16.45;;
62092;SDS011;59819;52.976;6.846;2022-09-30T04:39:18;211.90;;;21.80;;
62092;SDS011;59819;52.976;6.846;2022-09-30T04:41:44;156.32;;;18.92;;
62092;SDS011;59819;52.976;6.846;2022-09-30T04:44:11;86.22;;;14.45;;
62092;SDS011;59819;52.976;6.846;2022-09-30T04:46:37;40.40;;;14.48;;
62092;SDS011;59819;52.976;6.846;2022-09-30T04:49:04;35.00;;;11.30;;
62092;SDS011;59819;52.976;6.846;2022-09-30T04:51:30;23.15;;;10.98;;
62092;SDS011;59819;52.976;6.846;2022-09-30T04:53:57;21.33;;;9.88;;
62092;SDS011;59819;52.976;6.846;2022-09-30T04:56:23;56.55;;;11.52;;
62092;SDS011;59819;52.976;6.846;2022-09-30T04:58:51;70.05;;;12.10;;
62092;SDS011;59819;52.976;6.846;2022-09-30T05:01:18;85.25;;;14.98;;
62092;SDS011;59819;52.976;6.846;2022-09-30T05:03:44;49.40;;;10.85;;
62092;SDS011;59819;52.976;6.846;2022-09-30T05:06:11;105.32;;;14.93;;
62092;SDS011;59819;52.976;6.846;2022-09-30T05:08:37;65.75;;;14.88;;
62092;SDS011;59819;52.976;6.846;2022-09-30T05:11:06;29.80;;;11.45;;
62092;SDS011;59819;52.976;6.846;2022-09-30T05:13:34;18.25;;;9.18;;
62092;SDS011;59819;52.976;6.846;2022-09-30T05:16:00;18.38;;;10.35;;
62092;SDS011;59819;52.976;6.846;2022-09-30T05:18:27;59.50;;;17.25;;
62092;SDS011;59819;52.976;6.846;2022-09-30T05:20:53;72.45;;;19.98;;
62092;SDS011;59819;52.976;6.846;2022-09-30T05:23:24;89.50;;;20.08;;
62092;SDS011;59819;52.976;6.846;2022-09-30T05:25:50;74.88;;;21.65;;
62092;SDS011;59819;52.976;6.846;2022-09-30T05:28:17;40.83;;;14.93;;
62092;SDS011;59819;52.976;6.846;2022-09-30T05:30:43;49.25;;;15.25;;
62092;SDS011;59819;52.976;6.846;2022-09-30T05:33:10;24.42;;;11.45;;
62092;SDS011;59819;52.976;6.846;2022-09-30T05:35:37;24.08;;;11.25;;
62092;SDS011;59819;52.976;6.846;2022-09-30T05:38:04;24.55;;;12.52;;
62092;SDS011;59819;52.976;6.846;2022-09-30T05:40:30;31.80;;;13.55;;
62092;SDS011;59819;52.976;6.846;2022-09-30T05:42:56;11.27;;;10.27;;
62092;SDS011;59819;52.976;6.846;2022-09-30T05:45:23;17.65;;;10.38;;
62092;SDS011;59819;52.976;6.846;2022-09-30T05:47:49;61.53;;;14.07;;
62092;SDS011;59819;52.976;6.846;2022-09-30T05:50:16;26.05;;;12.95;;
62092;SDS011;59819;52.976;6.846;2022-09-30T05:52:42;29.88;;;15.07;;
62092;SDS011;59819;52.976;6.846;2022-09-30T05:55:08;41.38;;;16.75;;
62092;SDS011;59819;52.976;6.846;2022-09-30T05:57:34;69.10;;;20.77;;
62092;SDS011;59819;52.976;6.846;2022-09-30T06:00:00;52.30;;;16.00;;
62092;SDS011;59819;52.976;6.846;2022-09-30T06:02:26;55.25;;;17.98;;
62092;SDS011;59819;52.976;6.846;2022-09-30T06:04:52;30.05;;;15.25;;
62092;SDS011;59819;52.976;6.846;2022-09-30T06:07:19;29.90;;;15.50;;
62092;SDS011;59819;52.976;6.846;2022-09-30T06:09:45;32.22;;;16.38;;
62092;SDS011;59819;52.976;6.846;2022-09-30T06:12:11;42.13;;;17.88;;
62092;SDS011;59819;52.976;6.846;2022-09-30T06:14:38;27.55;;;17.25;;
62092;SDS011;59819;52.976;6.846;2022-09-30T06:17:04;31.63;;;17.50;;
62092;SDS011;59819;52.976;6.846;2022-09-30T06:19:30;26.90;;;14.82;;
62092;SDS011;59819;52.976;6.846;2022-09-30T06:21:57;18.25;;;12.48;;
62092;SDS011;59819;52.976;6.846;2022-09-30T06:24:23;16.38;;;13.30;;
62092;SDS011;59819;52.976;6.846;2022-09-30T06:26:49;27.70;;;13.73;;
62092;SDS011;59819;52.976;6.846;2022-09-30T06:29:15;19.77;;;13.82;;
62092;SDS011;59819;52.976;6.846;2022-09-30T06:31:41;23.63;;;17.48;;
62092;SDS011;59819;52.976;6.846;2022-09-30T06:34:07;48.03;;;22.30;;
62092;SDS011;59819;52.976;6.846;2022-09-30T06:36:34;19.48;;;17.45;;
62092;SDS011;59819;52.976;6.846;2022-09-30T06:39:00;23.95;;;20.08;;
62092;SDS011;59819;52.976;6.846;2022-09-30T06:41:27;34.08;;;25.02;;
62092;SDS011;59819;52.976;6.846;2022-09-30T06:43:54;30.73;;;23.13;;
62092;SDS011;59819;52.976;6.846;2022-09-30T06:46:20;27.58;;;22.17;;
62092;SDS011;59819;52.976;6.846;2022-09-30T06:48:48;25.05;;;21.20;;
62092;SDS011;59819;52.976;6.846;2022-09-30T06:51:17;26.00;;;23.27;;
62092;SDS011;59819;52.976;6.846;2022-09-30T06:53:44;26.73;;;23.92;;
62092;SDS011;59819;52.976;6.846;2022-09-30T06:56:10;25.45;;;22.75;;
62092;SDS011;59819;52.976;6.846;2022-09-30T06:58:36;27.00;;;24.10;;
62092;SDS011;59819;52.976;6.846;2022-09-30T07:01:04;27.05;;;24.42;;
62092;SDS011;59819;52.976;6.846;2022-09-30T07:03:32;27.40;;;24.65;;
62092;SDS011;59819;52.976;6.846;2022-09-30T07:05:59;28.20;;;25.30;;
62092;SDS011;59819;52.976;6.846;2022-09-30T07:08:25;27.48;;;24.70;;
62092;SDS011;59819;52.976;6.846;2022-09-30T07:10:56;29.83;;;26.75;;
62092;SDS011;59819;52.976;6.846;2022-09-30T07:13:23;29.83;;;26.77;;
62092;SDS011;59819;52.976;6.846;2022-09-30T07:15:49;30.33;;;27.15;;
62092;SDS011;59819;52.976;6.846;2022-09-30T07:18:18;34.15;;;30.65;;
62092;SDS011;59819;52.976;6.846;2022-09-30T07:20:51;32.72;;;29.33;;
62092;SDS011;59819;52.976;6.846;2022-09-30T07:23:17;36.42;;;32.50;;
62092;SDS011;59819;52.976;6.846;2022-09-30T07:25:50;37.15;;;33.05;;
62092;SDS011;59819;52.976;6.846;2022-09-30T07:28:18;38.50;;;34.33;;
62092;SDS011;59819;52.976;6.846;2022-09-30T07:30:44;48.38;;;40.22;;
62092;SDS011;59819;52.976;6.846;2022-09-30T07:33:11;45.47;;;38.95;;
62092;SDS011;59819;52.976;6.846;2022-09-30T07:35:48;46.63;;;40.00;;
62092;SDS011;59819;52.976;6.846;2022-09-30T07:38:15;50.58;;;40.80;;
62092;SDS011;59819;52.976;6.846;2022-09-30T07:40:41;47.13;;;39.10;;
62092;SDS011;59819;52.976;6.846;2022-09-30T07:43:07;44.47;;;37.85;;
62092;SDS011;59819;52.976;6.846;2022-09-30T07:45:34;42.20;;;34.97;;
62092;SDS011;59819;52.976;6.846;2022-09-30T07:48:01;47.42;;;38.10;;
62092;SDS011;59819;52.976;6.846;2022-09-30T07:50:35;45.28;;;36.28;;
62092;SDS011;59819;52.976;6.846;2022-09-30T07:53:01;46.50;;;37.08;;
62092;SDS011;59819;52.976;6.846;2022-09-30T07:55:27;44.38;;;35.63;;
62092;SDS011;59819;52.976;6.846;2022-09-30T07:57:53;46.05;;;37.10;;
62092;SDS011;59819;52.976;6.846;2022-09-30T08:00:19;47.60;;;35.95;;
62092;SDS011;59819;52.976;6.846;2022-09-30T08:02:46;46.67;;;34.88;;
62092;SDS011;59819;52.976;6.846;2022-09-30T08:05:12;44.00;;;32.60;;
62092;SDS011;59819;52.976;6.846;2022-09-30T08:07:39;40.03;;;30.58;;
62092;SDS011;59819;52.976;6.846;2022-09-30T08:10:05;35.53;;;28.10;;
62092;SDS011;59819;52.976;6.846;2022-09-30T08:12:31;40.38;;;30.80;;
62092;SDS011;59819;52.976;6.846;2022-09-30T08:14:57;35.80;;;28.50;;
62092;SDS011;59819;52.976;6.846;2022-09-30T08:17:23;41.80;;;30.70;;
62092;SDS011;59819;52.976;6.846;2022-09-30T08:19:49;42.45;;;29.88;;
62092;SDS011;59819;52.976;6.846;2022-09-30T08:22:15;51.70;;;32.47;;
62092;SDS011;59819;52.976;6.846;2022-09-30T08:24:41;51.47;;;32.28;;
62092;SDS011;59819;52.976;6.846;2022-09-30T08:27:07;56.08;;;33.60;;
62092;SDS011;59819;52.976;6.846;2022-09-30T08:29:33;65.35;;;36.40;;
62092;SDS011;59819;52.976;6.846;2022-09-30T08:31:59;67.15;;;36.63;;
62092;SDS011;59819;52.976;6.846;2022-09-30T08:34:25;66.82;;;34.70;;
62092;SDS011;59819;52.976;6.846;2022-09-30T08:36:57;71.80;;;32.00;;
62092;SDS011;59819;52.976;6.846;2022-09-30T08:39:23;85.85;;;30.92;;
62092;SDS011;59819;52.976;6.846;2022-09-30T08:41:54;71.82;;;36.15;;
62092;SDS011;59819;52.976;6.846;2022-09-30T08:44:40;66.63;;;32.20;;
62092;SDS011;59819;52.976;6.846;2022-09-30T08:53:06;57.70;;;30.67;;
62092;SDS011;59819;52.976;6.846;2022-09-30T08:55:43;75.32;;;29.63;;
62092;SDS011;59819;52.976;6.846;2022-09-30T08:58:15;74.00;;;30.90;;
62092;SDS011;59819;52.976;6.846;2022-09-30T09:00:46;48.38;;;27.77;;
62092;SDS011;59819;52.976;6.846;2022-09-30T09:03:13;51.33;;;30.50;;
62092;SDS011;59819;52.976;6.846;2022-09-30T09:08:20;42.15;;;27.63;;
62092;SDS011;59819;52.976;6.846;2022-09-30T09:10:58;36.45;;;24.95;;
62092;SDS011;59819;52.976;6.846;2022-09-30T09:16:33;30.20;;;22.15;;
62092;SDS011;59819;52.976;6.846;2022-09-30T09:23:43;30.60;;;21.75;;
62092;SDS011;59819;52.976;6.846;2022-09-30T09:26:10;28.02;;;19.55;;
62092;SDS011;59819;52.976;6.846;2022-09-30T09:28:40;26.40;;;18.67;;
62092;SDS011;59819;52.976;6.846;2022-09-30T09:31:13;23.42;;;17.73;;
62092;SDS011;59819;52.976;6.846;2022-09-30T09:33:41;25.08;;;18.10;;
62092;SDS011;59819;52.976;6.846;2022-09-30T09:38:49;22.50;;;17.23;;
62092;SDS011;59819;52.976;6.846;2022-09-30T09:41:32;19.67;;;15.02;;
62092;SDS011;59819;52.976;6.846;2022-09-30T09:44:10;19.77;;;15.05;;
62092;SDS011;59819;52.976;6.846;2022-09-30T09:51:46;16.77;;;12.93;;
62092;SDS011;59819;52.976;6.846;2022-09-30T09:54:14;15.77;;;12.20;;
62092;SDS011;59819;52.976;6.846;2022-09-30T09:56:43;14.77;;;12.00;;
62092;SDS011;59819;52.976;6.846;2022-09-30T09:59:11;21.73;;;12.38;;
62092;SDS011;59819;52.976;6.846;2022-09-30T10:01:38;12.68;;;10.77;;
62092;SDS011;59819;52.976;6.846;2022-09-30T10:06:57;10.35;;;9.15;;
62092;SDS011;59819;52.976;6.846;2022-09-30T10:09:31;9.73;;;8.70;;
62092;SDS011;59819;52.976;6.846;2022-09-30T10:14:33;8.57;;;7.70;;
62092;SDS011;59819;52.976;6.846;2022-09-30T10:17:00;8.50;;;7.60;;
62092;SDS011;59819;52.976;6.846;2022-09-30T10:19:27;9.57;;;8.05;;
62092;SDS011;59819;52.976;6.846;2022-09-30T10:24:32;10.98;;;9.63;;
62092;SDS011;59819;52.976;6.846;2022-09-30T10:26:59;7.45;;;6.75;;
62092;SDS011;59819;52.976;6.846;2022-09-30T10:29:26;7.93;;;6.95;;
62092;SDS011;59819;52.976;6.846;2022-09-30T10:31:53;7.88;;;7.07;;
62092;SDS011;59819;52.976;6.846;2022-09-30T10:34:23;7.80;;;7.10;;
62092;SDS011;59819;52.976;6.846;2022-09-30T10:36:50;7.35;;;6.65;;
62092;SDS011;59819;52.976;6.846;2022-09-30T10:39:36;6.43;;;5.90;;
62092;SDS011;59819;52.976;6.846;2022-09-30T10:42:08;6.10;;;5.53;;
62092;SDS011;59819;52.976;6.846;2022-09-30T10:44:41;5.80;;;5.30;;
62092;SDS011;59819;52.976;6.846;2022-09-30T10:47:08;5.65;;;5.07;;
62092;SDS011;59819;52.976;6.846;2022-09-30T10:49:49;5.60;;;5.10;;
62092;SDS011;59819;52.976;6.846;2022-09-30T10:52:17;5.93;;;4.93;;
62092;SDS011;59819;52.976;6.846;2022-09-30T10:57:23;6.00;;;5.47;;
62092;SDS011;59819;52.976;6.846;2022-09-30T11:00:23;6.28;;;5.68;;
62092;SDS011;59819;52.976;6.846;2022-09-30T11:05:22;6.97;;;6.38;;
62092;SDS011;59819;52.976;6.846;2022-09-30T11:07:52;7.22;;;6.57;;
62092;SDS011;59819;52.976;6.846;2022-09-30T11:10:30;7.38;;;6.68;;
62092;SDS011;59819;52.976;6.846;2022-09-30T11:13:12;7.70;;;7.00;;
62092;SDS011;59819;52.976;6.846;2022-09-30T11:21:05;10.02;;;9.13;;
62092;SDS011;59819;52.976;6.846;2022-09-30T11:23:37;11.40;;;9.63;;
62092;SDS011;59819;52.976;6.846;2022-09-30T11:26:26;11.10;;;9.70;;
62092;SDS011;59819;52.976;6.846;2022-09-30T11:34:06;9.00;;;8.20;;
62092;SDS011;59819;52.976;6.846;2022-09-30T11:36:40;8.43;;;7.60;;
62092;SDS011;59819;52.976;6.846;2022-09-30T11:39:20;10.07;;;9.07;;
62092;SDS011;59819;52.976;6.846;2022-09-30T11:41:52;9.43;;;8.63;;
62092;SDS011;59819;52.976;6.846;2022-09-30T11:57:27;5.30;;;4.43;;
62092;SDS011;59819;52.976;6.846;2022-09-30T12:00:04;4.45;;;3.70;;
62092;SDS011;59819;52.976;6.846;2022-09-30T12:02:36;5.60;;;5.00;;
62092;SDS011;59819;52.976;6.846;2022-09-30T12:07:48;5.50;;;5.00;;
62092;SDS011;59819;52.976;6.846;2022-09-30T12:10:18;5.22;;;4.72;;
62092;SDS011;59819;52.976;6.846;2022-09-30T12:12:45;6.07;;;5.47;;
62092;SDS011;59819;52.976;6.846;2022-09-30T12:15:15;6.28;;;5.30;;
62092;SDS011;59819;52.976;6.846;2022-09-30T12:17:43;5.15;;;4.57;;
62092;SDS011;59819;52.976;6.846;2022-09-30T12:22:37;4.60;;;4.20;;
62092;SDS011;59819;52.976;6.846;2022-09-30T12:25:10;6.80;;;6.10;;
62092;SDS011;59819;52.976;6.846;2022-09-30T12:27:39;7.03;;;6.35;;
62092;SDS011;59819;52.976;6.846;2022-09-30T12:30:14;8.02;;;5.90;;
62092;SDS011;59819;52.976;6.846;2022-09-30T12:43:12;6.28;;;5.28;;
62092;SDS011;59819;52.976;6.846;2022-09-30T12:48:13;8.55;;;7.72;;
62092;SDS011;59819;52.976;6.846;2022-09-30T12:50:44;9.70;;;8.80;;
62092;SDS011;59819;52.976;6.846;2022-09-30T12:55:38;8.98;;;8.07;;
62092;SDS011;59819;52.976;6.846;2022-09-30T12:58:12;9.15;;;8.25;;
62092;SDS011;59819;52.976;6.846;2022-09-30T13:00:41;10.40;;;9.38;;
62092;SDS011;59819;52.976;6.846;2022-09-30T13:03:22;11.93;;;10.80;;
62092;SDS011;59819;52.976;6.846;2022-09-30T13:05:51;10.52;;;9.43;;
62092;SDS011;59819;52.976;6.846;2022-09-30T13:10:44;10.38;;;9.40;;
62092;SDS011;59819;52.976;6.846;2022-09-30T13:13:15;10.38;;;9.48;;
62092;SDS011;59819;52.976;6.846;2022-09-30T13:15:45;9.88;;;8.98;;
62092;SDS011;59819;52.976;6.846;2022-09-30T13:23:40;11.15;;;9.85;;
62092;SDS011;59819;52.976;6.846;2022-09-30T13:31:25;9.70;;;8.90;;
62092;SDS011;59819;52.976;6.846;2022-09-30T13:36:38;9.10;;;8.18;;
62092;SDS011;59819;52.976;6.846;2022-09-30T13:41:55;11.15;;;10.10;;
62092;SDS011;59819;52.976;6.846;2022-09-30T13:44:31;11.75;;;10.57;;
62092;SDS011;59819;52.976;6.846;2022-09-30T13:46:59;11.93;;;10.73;;
62092;SDS011;59819;52.976;6.846;2022-09-30T13:49:50;12.57;;;11.27;;
62092;SDS011;59819;52.976;6.846;2022-09-30T13:52:19;12.23;;;10.90;;
62092;SDS011;59819;52.976;6.846;2022-09-30T13:54:47;11.48;;;10.48;;
62092;SDS011;59819;52.976;6.846;2022-09-30T13:57:16;12.45;;;11.25;;
62092;SDS011;59819;52.976;6.846;2022-09-30T14:07:33;13.57;;;12.18;;
62092;SDS011;59819;52.976;6.846;2022-09-30T14:15:25;14.95;;;13.45;;
62092;SDS011;59819;52.976;6.846;2022-09-30T14:18:13;14.10;;;12.73;;
62092;SDS011;59819;52.976;6.846;2022-09-30T14:23:14;14.32;;;12.93;;
62092;SDS011;59819;52.976;6.846;2022-09-30T14:25:58;15.73;;;14.23;;
62092;SDS011;59819;52.976;6.846;2022-09-30T14:28:46;15.05;;;13.73;;
62092;SDS011;59819;52.976;6.846;2022-09-30T14:31:15;14.93;;;13.32;;
62092;SDS011;59819;52.976;6.846;2022-09-30T14:33:43;16.48;;;13.68;;
62092;SDS011;59819;52.976;6.846;2022-09-30T14:36:12;14.82;;;13.50;;
62092;SDS011;59819;52.976;6.846;2022-09-30T14:38:40;15.25;;;13.85;;
62092;SDS011;59819;52.976;6.846;2022-09-30T14:41:12;15.00;;;13.60;;
62092;SDS011;59819;52.976;6.846;2022-09-30T14:43:40;15.18;;;13.43;;
62092;SDS011;59819;52.976;6.846;2022-09-30T14:49:06;15.57;;;14.07;;
62092;SDS011;59819;52.976;6.846;2022-09-30T14:51:37;15.27;;;13.77;;
62092;SDS011;59819;52.976;6.846;2022-09-30T14:54:14;15.70;;;14.20;;
62092;SDS011;59819;52.976;6.846;2022-09-30T14:56:40;16.20;;;14.60;;
62092;SDS011;59819;52.976;6.846;2022-09-30T15:02:17;18.27;;;16.48;;
62092;SDS011;59819;52.976;6.846;2022-09-30T15:04:48;18.20;;;16.42;;
62092;SDS011;59819;52.976;6.846;2022-09-30T15:07:15;18.45;;;16.55;;
62092;SDS011;59819;52.976;6.846;2022-09-30T15:09:42;19.35;;;17.58;;
62092;SDS011;59819;52.976;6.846;2022-09-30T15:12:20;17.80;;;16.02;;
62092;SDS011;59819;52.976;6.846;2022-09-30T15:14:58;17.48;;;15.68;;
62092;SDS011;59819;52.976;6.846;2022-09-30T15:17:26;18.92;;;17.05;;
62092;SDS011;59819;52.976;6.846;2022-09-30T15:19:52;18.05;;;16.35;;
62092;SDS011;59819;52.976;6.846;2022-09-30T15:22:19;17.95;;;16.35;;
62092;SDS011;59819;52.976;6.846;2022-09-30T15:24:46;18.77;;;16.80;;
62092;SDS011;59819;52.976;6.846;2022-09-30T15:27:14;17.40;;;15.73;;
62092;SDS011;59819;52.976;6.846;2022-09-30T15:29:57;17.17;;;15.48;;
62092;SDS011;59819;52.976;6.846;2022-09-30T15:32:28;17.75;;;16.08;;
62092;SDS011;59819;52.976;6.846;2022-09-30T15:34:55;17.08;;;15.48;;
62092;SDS011;59819;52.976;6.846;2022-09-30T15:37:23;16.95;;;15.45;;
62092;SDS011;59819;52.976;6.846;2022-09-30T15:39:49;17.77;;;16.17;;
62092;SDS011;59819;52.976;6.846;2022-09-30T15:42:35;16.27;;;14.82;;
62092;SDS011;59819;52.976;6.846;2022-09-30T15:45:03;16.30;;;14.70;;
62092;SDS011;59819;52.976;6.846;2022-09-30T15:47:30;16.25;;;14.85;;
62092;SDS011;59819;52.976;6.846;2022-09-30T15:49:56;15.80;;;14.40;;
62092;SDS011;59819;52.976;6.846;2022-09-30T15:52:27;15.63;;;14.25;;
62092;SDS011;59819;52.976;6.846;2022-09-30T15:54:54;15.10;;;13.60;;
62092;SDS011;59819;52.976;6.846;2022-09-30T16:00:04;15.00;;;13.52;;
62092;SDS011;59819;52.976;6.846;2022-09-30T16:02:32;14.70;;;13.25;;
62092;SDS011;59819;52.976;6.846;2022-09-30T16:04:58;14.70;;;13.30;;
62092;SDS011;59819;52.976;6.846;2022-09-30T16:07:29;13.97;;;11.97;;
62092;SDS011;59819;52.976;6.846;2022-09-30T16:09:56;13.65;;;12.35;;
62092;SDS011;59819;52.976;6.846;2022-09-30T16:12:28;12.52;;;11.27;;
62092;SDS011;59819;52.976;6.846;2022-09-30T16:17:29;12.13;;;10.88;;
62092;SDS011;59819;52.976;6.846;2022-09-30T16:20:00;13.00;;;11.52;;
62092;SDS011;59819;52.976;6.846;2022-09-30T16:27:38;12.10;;;10.90;;
62092;SDS011;59819;52.976;6.846;2022-09-30T16:30:05;13.68;;;11.27;;
62092;SDS011;59819;52.976;6.846;2022-09-30T16:32:32;12.35;;;10.73;;
62092;SDS011;59819;52.976;6.846;2022-09-30T16:35:00;12.23;;;10.98;;
62092;SDS011;59819;52.976;6.846;2022-09-30T16:37:27;12.00;;;10.48;;
62092;SDS011;59819;52.976;6.846;2022-09-30T16:39:53;11.10;;;10.10;;
62092;SDS011;59819;52.976;6.846;2022-09-30T16:42:20;11.93;;;10.60;;
62092;SDS011;59819;52.976;6.846;2022-09-30T16:44:46;11.48;;;10.32;;
62092;SDS011;59819;52.976;6.846;2022-09-30T16:47:13;11.60;;;10.57;;
62092;SDS011;59819;52.976;6.846;2022-09-30T16:49:40;11.35;;;10.40;;
62092;SDS011;59819;52.976;6.846;2022-09-30T16:52:09;11.65;;;10.55;;
62092;SDS011;59819;52.976;6.846;2022-09-30T16:54:35;11.93;;;10.73;;
62092;SDS011;59819;52.976;6.846;2022-09-30T16:57:02;12.23;;;11.13;;
62092;SDS011;59819;52.976;6.846;2022-09-30T16:59:28;13.00;;;11.80;;
62092;SDS011;59819;52.976;6.846;2022-09-30T17:01:56;13.45;;;12.23;;
62092;SDS011;59819;52.976;6.846;2022-09-30T17:04:24;13.32;;;12.10;;
62092;SDS011;59819;52.976;6.846;2022-09-30T17:06:50;13.63;;;12.43;;
62092;SDS011;59819;52.976;6.846;2022-09-30T17:09:17;14.25;;;12.93;;
62092;SDS011;59819;52.976;6.846;2022-09-30T17:11:44;15.75;;;14.35;;
62092;SDS011;59819;52.976;6.846;2022-09-30T17:14:10;15.23;;;13.82;;
62092;SDS011;59819;52.976;6.846;2022-09-30T17:16:36;16.00;;;14.60;;
62092;SDS011;59819;52.976;6.846;2022-09-30T17:19:02;17.10;;;15.65;;
62092;SDS011;59819;52.976;6.846;2022-09-30T17:21:28;19.02;;;17.42;;
62092;SDS011;59819;52.976;6.846;2022-09-30T17:23:54;19.65;;;17.77;;
62092;SDS011;59819;52.976;6.846;2022-09-30T17:26:22;20.92;;;19.02;;
62092;SDS011;59819;52.976;6.846;2022-09-30T17:28:48;19.83;;;18.13;;
62092;SDS011;59819;52.976;6.846;2022-09-30T17:31:14;20.77;;;18.77;;
62092;SDS011;59819;52.976;6.846;2022-09-30T17:33:40;21.15;;;19.25;;
62092;SDS011;59819;52.976;6.846;2022-09-30T17:36:08;21.08;;;19.05;;
62092;SDS011;59819;52.976;6.846;2022-09-30T17:38:34;22.45;;;18.95;;
62092;SDS011;59819;52.976;6.846;2022-09-30T17:41:01;21.08;;;19.15;;
62092;SDS011;59819;52.976;6.846;2022-09-30T17:43:45;21.02;;;19.10;;
62092;SDS011;59819;52.976;6.846;2022-09-30T17:46:12;22.83;;;20.63;;
62092;SDS011;59819;52.976;6.846;2022-09-30T17:48:43;21.95;;;19.95;;
62092;SDS011;59819;52.976;6.846;2022-09-30T17:51:10;21.02;;;19.13;;
62092;SDS011;59819;52.976;6.846;2022-09-30T17:53:37;20.42;;;18.63;;
62092;SDS011;59819;52.976;6.846;2022-09-30T17:56:04;20.88;;;18.98;;
62092;SDS011;59819;52.976;6.846;2022-09-30T17:58:34;19.70;;;17.92;;
62092;SDS011;59819;52.976;6.846;2022-09-30T18:01:07;20.52;;;18.40;;
62092;SDS011;59819;52.976;6.846;2022-09-30T18:03:33;19.55;;;17.85;;
62092;SDS011;59819;52.976;6.846;2022-09-30T18:06:00;19.58;;;17.88;;